createdAt,value
2023-01-18T00:01:59.607Z,1.27
2023-01-18T00:04:27.647Z,1.70
2023-01-18T00:06:57.345Z,1.50
2023-01-18T00:09:25.402Z,1.33
2023-01-18T00:11:54.722Z,1.70
2023-01-18T00:14:22.758Z,1.10
2023-01-18T00:16:50.704Z,1.20
2023-01-18T00:19:18.714Z,1.67
2023-01-18T00:21:46.629Z,1.30
2023-01-18T00:24:16.005Z,1.77
2023-01-18T00:26:44.634Z,1.47
2023-01-18T00:29:14.209Z,1.60
2023-01-18T00:31:42.193Z,1.70
2023-01-18T00:34:10.198Z,3.10
2023-01-18T00:36:38.160Z,1.70
2023-01-18T00:39:06.135Z,1.40
2023-01-18T00:41:34.097Z,1.80
2023-01-18T00:44:01.460Z,1.57
2023-01-18T00:46:30.833Z,1.63
2023-01-18T00:48:59.048Z,1.47
2023-01-18T00:51:27.001Z,1.10
2023-01-18T00:53:54.934Z,1.60
2023-01-18T00:56:23.307Z,1.37
2023-01-18T00:58:51.291Z,1.80
2023-01-18T01:01:19.305Z,1.37
2023-01-18T01:04:06.053Z,1.80
2023-01-18T01:06:47.459Z,1.73
2023-01-18T01:09:17.178Z,1.93
2023-01-18T01:12:05.331Z,1.10
2023-01-18T01:14:51.110Z,2.27
2023-01-18T01:17:36.503Z,1.00
2023-01-18T01:20:23.921Z,1.93
2023-01-18T01:23:09.162Z,1.10
2023-01-18T01:25:55.009Z,1.53
2023-01-18T01:28:23.078Z,1.40
2023-01-18T01:30:51.067Z,2.20
2023-01-18T01:33:19.420Z,1.43
2023-01-18T01:35:48.728Z,2.20
2023-01-18T01:38:16.699Z,1.60
2023-01-18T01:40:44.682Z,1.43
2023-01-18T01:43:13.952Z,2.20
2023-01-18T01:45:41.938Z,1.43
2023-01-18T01:48:09.918Z,2.37
2023-01-18T01:50:38.614Z,1.20
2023-01-18T01:53:07.978Z,1.67
2023-01-18T01:55:36.909Z,1.33
2023-01-18T01:58:06.203Z,1.80
2023-01-18T02:00:34.142Z,1.50
2023-01-18T02:03:03.003Z,1.43
2023-01-18T02:05:31.184Z,1.80
2023-01-18T02:08:00.374Z,1.20
2023-01-18T02:10:29.792Z,1.60
2023-01-18T02:12:58.074Z,1.80
2023-01-18T02:15:28.661Z,1.33
2023-01-18T02:18:13.927Z,1.40
2023-01-18T02:21:16.260Z,1.70
2023-01-18T02:24:07.283Z,2.10
2023-01-18T02:26:50.455Z,2.60
2023-01-18T02:29:19.899Z,1.60
2023-01-18T02:31:54.970Z,1.70
2023-01-18T02:34:26.710Z,1.90
2023-01-18T02:36:57.958Z,1.43
2023-01-18T02:39:31.632Z,1.70
2023-01-18T02:42:19.917Z,1.80
2023-01-18T02:45:06.577Z,1.77
2023-01-18T02:47:34.527Z,1.30
2023-01-18T02:50:03.638Z,1.47
2023-01-18T02:52:41.551Z,1.70
2023-01-18T02:55:11.676Z,1.50
2023-01-18T02:57:39.615Z,1.87
2023-01-18T03:00:10.380Z,1.83
2023-01-18T03:02:38.537Z,2.03
2023-01-18T03:05:07.335Z,1.47
2023-01-18T03:07:36.635Z,2.17
2023-01-18T03:10:08.136Z,2.47
2023-01-18T03:12:47.072Z,2.00
2023-01-18T03:15:20.186Z,1.93
2023-01-18T03:17:51.389Z,1.60
2023-01-18T03:20:25.692Z,2.40
2023-01-18T03:23:14.206Z,2.57
2023-01-18T03:25:44.139Z,2.10
2023-01-18T03:28:32.048Z,1.80
2023-01-18T03:31:19.837Z,2.57
2023-01-18T03:33:49.149Z,1.90
2023-01-18T03:36:20.615Z,2.07
2023-01-18T03:38:49.528Z,1.80
2023-01-18T03:41:17.572Z,2.30
2023-01-18T03:43:45.560Z,3.07
2023-01-18T03:46:15.046Z,1.63
2023-01-18T03:48:43.012Z,1.53
2023-01-18T03:51:14.500Z,1.73
2023-01-18T03:53:44.846Z,2.40
2023-01-18T03:56:15.176Z,1.83
2023-01-18T03:58:43.293Z,2.13
2023-01-18T04:01:11.409Z,2.17
2023-01-18T04:03:40.753Z,2.00
2023-01-18T04:06:08.868Z,1.30
2023-01-18T04:08:36.831Z,2.13
2023-01-18T04:11:04.771Z,2.50
2023-01-18T04:13:32.703Z,2.33
2023-01-18T04:16:00.704Z,2.00
2023-01-18T04:18:28.736Z,2.00
2023-01-18T04:20:58.074Z,2.23
2023-01-18T04:23:26.031Z,1.53
2023-01-18T04:25:53.977Z,2.00
2023-01-18T04:28:27.139Z,1.40
2023-01-18T04:30:55.645Z,1.50
2023-01-18T04:33:24.189Z,2.00
2023-01-18T04:35:54.298Z,1.83
2023-01-18T04:38:23.649Z,1.70
2023-01-18T04:40:51.659Z,1.53
2023-01-18T04:43:19.655Z,1.90
2023-01-18T04:45:54.533Z,1.90
2023-01-18T04:48:22.525Z,2.00
2023-01-18T04:50:50.482Z,1.73
2023-01-18T04:53:18.615Z,1.73
2023-01-18T04:55:47.989Z,2.20
2023-01-18T04:58:16.250Z,2.17
2023-01-18T05:00:44.701Z,2.73
2023-01-18T05:03:12.935Z,1.53
2023-01-18T05:05:41.199Z,2.30
2023-01-18T05:08:09.157Z,1.20
2023-01-18T05:10:37.101Z,1.70
2023-01-18T05:13:06.563Z,1.23
2023-01-18T05:15:35.176Z,1.33
2023-01-18T05:18:03.191Z,1.50
2023-01-18T05:20:31.102Z,1.20
2023-01-18T05:22:59.381Z,1.33
2023-01-18T05:25:27.606Z,2.13
2023-01-18T05:27:55.561Z,2.27
2023-01-18T05:30:24.853Z,2.83
2023-01-18T05:32:52.771Z,3.00
2023-01-18T05:35:20.744Z,2.57
2023-01-18T05:37:48.705Z,1.80
2023-01-18T05:40:16.869Z,2.67
2023-01-18T05:42:44.845Z,1.90
2023-01-18T05:45:13.151Z,2.13
2023-01-18T05:47:42.444Z,1.87
2023-01-18T05:50:11.223Z,2.40
2023-01-18T05:52:39.202Z,2.40
2023-01-18T05:55:07.546Z,2.00
2023-01-18T05:57:35.498Z,1.60
2023-01-18T06:00:05.008Z,1.60
2023-01-18T06:02:32.997Z,2.13
2023-01-18T06:05:02.344Z,1.80
2023-01-18T06:07:30.342Z,2.27
2023-01-18T06:09:59.169Z,2.80
2023-01-18T06:12:27.192Z,2.57
2023-01-18T06:14:55.154Z,1.70
2023-01-18T06:17:23.138Z,1.43
2023-01-18T06:19:51.050Z,1.10
2023-01-18T06:22:20.827Z,1.53
2023-01-18T06:24:48.789Z,1.20
2023-01-18T06:27:16.769Z,1.80
2023-01-18T06:29:44.770Z,1.80
2023-01-18T06:32:12.679Z,2.23
2023-01-18T06:34:40.639Z,1.90
2023-01-18T06:37:08.604Z,2.40
2023-01-18T06:39:39.676Z,1.60
2023-01-18T06:42:07.717Z,1.90
2023-01-18T06:44:35.707Z,1.83
2023-01-18T06:47:03.656Z,2.13
2023-01-18T06:49:31.566Z,2.63
2023-01-18T06:51:59.556Z,2.10
2023-01-18T06:54:27.531Z,2.30
2023-01-18T06:56:56.859Z,1.70
2023-01-18T06:59:24.821Z,1.73
2023-01-18T07:01:54.684Z,2.03
2023-01-18T07:04:22.752Z,2.70
2023-01-18T07:06:50.790Z,1.20
2023-01-18T07:09:18.715Z,2.43
2023-01-18T07:11:46.944Z,1.70
2023-01-18T07:14:16.292Z,2.00
2023-01-18T07:16:44.348Z,2.27
2023-01-18T07:19:12.274Z,3.00
2023-01-18T07:21:40.579Z,2.60
2023-01-18T07:24:08.658Z,2.10
2023-01-18T07:26:36.563Z,1.60
2023-01-18T07:29:04.497Z,1.70
2023-01-18T07:31:33.815Z,1.53
2023-01-18T07:34:01.780Z,2.30
2023-01-18T07:36:29.730Z,2.30
2023-01-18T07:38:57.631Z,3.03
2023-01-18T07:41:26.272Z,2.60
2023-01-18T07:43:54.240Z,2.17
2023-01-18T07:46:22.457Z,2.30
2023-01-18T07:48:52.591Z,2.17
2023-01-18T07:51:21.632Z,1.73
2023-01-18T07:53:49.794Z,2.20
2023-01-18T07:56:18.509Z,2.10
2023-01-18T07:58:46.562Z,2.93
2023-01-18T08:01:15.678Z,2.00
2023-01-18T08:03:43.814Z,1.70
2023-01-18T08:06:13.919Z,1.77
2023-01-18T08:08:41.955Z,2.97
2023-01-18T08:11:10.037Z,2.37
2023-01-18T08:13:37.999Z,1.73
2023-01-18T08:16:07.182Z,1.70
2023-01-18T08:18:35.135Z,1.77
2023-01-18T08:21:03.147Z,2.00
2023-01-18T08:23:32.471Z,1.63
2023-01-18T08:26:03.611Z,2.10
2023-01-18T08:28:31.548Z,1.80
2023-01-18T08:31:07.271Z,1.50
2023-01-18T08:33:38.548Z,1.43
2023-01-18T08:36:07.333Z,1.50
2023-01-18T08:38:36.662Z,1.93
2023-01-18T08:41:04.680Z,1.90
2023-01-18T08:43:32.646Z,1.40
2023-01-18T08:46:00.738Z,1.53
2023-01-18T08:48:28.716Z,3.20
2023-01-18T08:51:00.534Z,2.20
2023-01-18T08:53:28.587Z,1.80
2023-01-18T08:55:58.085Z,2.60
2023-01-18T08:58:26.154Z,2.53
2023-01-18T09:00:54.351Z,2.00
2023-01-18T09:03:22.600Z,2.83
2023-01-18T09:05:50.570Z,2.10
2023-01-18T09:08:18.631Z,2.00
2023-01-18T09:10:46.620Z,1.53
2023-01-18T09:13:15.959Z,1.03
2023-01-18T09:15:45.609Z,2.10
2023-01-18T09:18:13.592Z,2.10
2023-01-18T09:20:43.581Z,1.57
2023-01-18T09:23:11.568Z,1.57
2023-01-18T09:25:41.041Z,1.67
2023-01-18T09:28:09.086Z,1.57
2023-01-18T09:30:38.426Z,2.00
2023-01-18T09:33:06.410Z,1.17
2023-01-18T09:35:34.408Z,1.60
2023-01-18T09:38:02.398Z,2.57
2023-01-18T09:40:37.275Z,1.87
2023-01-18T09:43:05.243Z,1.87
2023-01-18T09:45:33.788Z,1.90
2023-01-18T09:48:04.973Z,1.57
2023-01-18T09:50:34.082Z,1.77
2023-01-18T09:53:08.100Z,1.53
2023-01-18T09:55:43.662Z,2.20
2023-01-18T09:58:15.567Z,1.67
2023-01-18T10:00:45.912Z,1.50
2023-01-18T10:03:19.505Z,1.83
2023-01-18T10:05:52.320Z,2.07
2023-01-18T10:08:22.832Z,1.83
2023-01-18T10:10:53.381Z,2.13
2023-01-18T10:13:33.832Z,1.77
2023-01-18T10:16:02.594Z,1.80
2023-01-18T10:18:31.953Z,2.30
2023-01-18T10:21:01.503Z,1.80
2023-01-18T10:23:31.399Z,1.87
2023-01-18T10:26:02.129Z,1.70
2023-01-18T10:28:35.889Z,1.37
2023-01-18T10:31:11.246Z,1.13
2023-01-18T10:33:42.204Z,2.60
2023-01-18T10:36:13.606Z,2.33
2023-01-18T10:38:41.981Z,1.90
2023-01-18T10:41:17.070Z,1.77
2023-01-18T10:43:45.066Z,1.20
2023-01-18T10:46:14.851Z,1.37
2023-01-18T10:48:46.294Z,1.57
2023-01-18T10:51:26.193Z,1.30
2023-01-18T10:53:54.194Z,1.93
2023-01-18T10:56:24.309Z,2.10
2023-01-18T10:58:57.726Z,1.50
2023-01-18T11:01:27.450Z,1.27
2023-01-18T11:03:58.221Z,2.00
2023-01-18T11:06:26.406Z,1.50
2023-01-18T11:08:54.772Z,1.90
2023-01-18T11:11:51.126Z,2.00
2023-01-18T11:14:26.275Z,2.27
2023-01-18T11:17:01.231Z,1.77
2023-01-18T11:19:30.687Z,1.73
2023-01-18T11:21:58.673Z,2.97
2023-01-18T11:24:28.601Z,2.20
2023-01-18T11:26:59.079Z,2.10
2023-01-18T11:29:28.945Z,1.73
2023-01-18T11:31:57.150Z,1.40
2023-01-18T11:34:28.820Z,1.30
2023-01-18T11:37:00.181Z,1.60
2023-01-18T11:39:30.232Z,2.07
2023-01-18T11:42:23.839Z,1.83
2023-01-18T11:45:00.315Z,2.50
2023-01-18T11:47:32.613Z,1.10
2023-01-18T11:50:13.392Z,2.10
2023-01-18T11:52:48.880Z,5.60
2023-01-18T11:55:22.235Z,3.03
2023-01-18T11:57:50.382Z,2.53
2023-01-18T12:00:19.047Z,2.30
2023-01-18T12:02:56.256Z,1.83
2023-01-18T12:05:44.249Z,2.20
2023-01-18T12:08:25.243Z,1.77
2023-01-18T12:10:59.264Z,1.70
2023-01-18T12:13:36.119Z,1.50
2023-01-18T12:16:10.861Z,2.07
2023-01-18T12:18:50.841Z,1.90
2023-01-18T12:21:21.634Z,1.70
2023-01-18T12:24:15.318Z,1.80
2023-01-18T12:26:48.592Z,1.83
2023-01-18T12:29:33.289Z,1.60
2023-01-18T12:32:07.523Z,1.33
2023-01-18T12:34:39.405Z,1.70
2023-01-18T12:37:23.939Z,1.70
2023-01-18T12:40:03.895Z,1.80
2023-01-18T12:42:38.928Z,1.40
2023-01-18T12:45:12.447Z,2.30
2023-01-18T12:47:41.351Z,6.30
2023-01-18T12:50:16.645Z,1.80
2023-01-18T12:52:47.422Z,1.60
2023-01-18T12:55:21.195Z,2.13
2023-01-18T12:57:50.675Z,1.57
2023-01-18T13:00:22.298Z,1.43
2023-01-18T13:02:51.822Z,1.30
2023-01-18T13:05:20.941Z,1.60
2023-01-18T13:07:50.946Z,2.13
2023-01-18T13:10:22.661Z,1.60
2023-01-18T13:12:50.750Z,2.90
2023-01-18T13:15:24.529Z,1.70
2023-01-18T13:17:54.940Z,2.23
2023-01-18T13:20:24.093Z,1.60
2023-01-18T13:22:57.736Z,1.83
2023-01-18T13:25:41.791Z,1.90
2023-01-18T13:28:17.977Z,2.23
2023-01-18T13:30:56.553Z,1.53
2023-01-18T13:33:25.499Z,2.03
2023-01-18T13:35:55.440Z,2.30
2023-01-18T13:38:40.156Z,1.40
2023-01-18T13:41:11.687Z,1.80
2023-01-18T13:44:03.789Z,2.27
2023-01-18T13:46:33.172Z,2.50
2023-01-18T13:49:02.473Z,2.37
2023-01-18T13:51:57.369Z,1.97
2023-01-18T13:55:03.658Z,1.80
2023-01-18T13:57:34.316Z,1.70
2023-01-18T14:00:02.526Z,1.83
2023-01-18T14:02:34.082Z,3.33
2023-01-18T14:05:04.684Z,1.50
2023-01-18T14:07:38.670Z,2.13
2023-01-18T14:10:08.312Z,1.93
2023-01-18T14:12:59.279Z,2.30
2023-01-18T14:15:37.916Z,1.77
2023-01-18T14:18:05.984Z,2.37
2023-01-18T14:21:00.205Z,2.70
2023-01-18T14:23:53.616Z,2.07
2023-01-18T14:26:22.469Z,2.40
2023-01-18T14:28:53.071Z,3.03
2023-01-18T14:31:22.263Z,2.40
2023-01-18T14:33:51.158Z,2.37
2023-01-18T14:36:21.128Z,3.40
2023-01-18T14:42:35.861Z,1.97
2023-01-18T14:45:04.009Z,2.70
2023-01-18T14:47:33.689Z,1.70
2023-01-18T14:50:03.302Z,1.87
2023-01-18T14:52:33.173Z,1.60
2023-01-18T14:55:01.232Z,2.27
2023-01-18T14:57:29.165Z,2.77
2023-01-18T15:00:08.613Z,3.10
2023-01-18T15:02:38.823Z,3.23
2023-01-18T15:05:13.486Z,2.50
2023-01-18T15:07:41.452Z,2.27
2023-01-18T15:10:10.106Z,2.57
2023-01-18T15:12:38.004Z,3.50
2023-01-18T15:15:08.972Z,2.90
2023-01-18T15:17:37.016Z,2.27
2023-01-18T15:20:06.403Z,3.50
2023-01-18T15:22:35.963Z,2.43
2023-01-18T15:25:04.008Z,2.20
2023-01-18T15:27:32.956Z,2.70
2023-01-18T15:30:02.027Z,2.90
2023-01-18T15:32:32.693Z,2.80
2023-01-18T15:35:00.679Z,2.57
2023-01-18T15:37:30.334Z,2.70
2023-01-18T15:40:00.320Z,3.57
2023-01-18T15:42:30.866Z,3.00
2023-01-18T17:27:01.873Z,5.70
2023-01-18T17:29:29.830Z,4.73
2023-01-18T17:31:58.011Z,6.57
2023-01-18T17:34:28.501Z,4.40
2023-01-18T17:36:58.405Z,5.03
2023-01-18T17:39:37.428Z,6.27
2023-01-18T17:42:25.877Z,5.87
2023-01-18T17:45:02.741Z,5.03
2023-01-18T17:47:31.023Z,7.30
2023-01-18T17:49:59.009Z,4.13
2023-01-18T17:52:27.359Z,5.23
2023-01-18T17:54:55.291Z,7.50
2023-01-18T17:57:24.660Z,5.00
2023-01-18T17:59:55.661Z,5.07
2023-01-18T18:02:23.965Z,4.60
2023-01-18T18:04:52.228Z,4.50
2023-01-18T18:07:20.156Z,11.20
2023-01-18T18:09:48.179Z,6.10
2023-01-18T18:12:16.172Z,7.10
2023-01-18T18:14:45.463Z,4.37
2023-01-18T18:17:13.472Z,5.57
2023-01-18T18:19:41.420Z,3.00
2023-01-18T18:22:09.363Z,6.30
2023-01-18T18:24:37.343Z,3.70
2023-01-18T18:27:05.499Z,4.80
2023-01-18T18:29:33.488Z,4.60
2023-01-18T18:32:05.366Z,6.57
2023-01-18T18:34:33.354Z,4.30
2023-01-18T18:37:01.305Z,4.70
2023-01-18T18:39:29.271Z,4.40
2023-01-18T18:41:57.276Z,6.37
2023-01-18T18:44:25.215Z,5.70
2023-01-18T18:46:53.297Z,5.43
2023-01-18T18:49:22.696Z,3.30
2023-01-18T18:51:50.658Z,4.97
2023-01-18T18:54:19.053Z,4.20
2023-01-18T18:56:47.076Z,5.60
2023-01-18T18:59:15.041Z,5.37
2023-01-18T19:01:43.019Z,5.90
2023-01-18T19:04:10.936Z,6.40
2023-01-18T19:06:40.342Z,6.60
2023-01-18T19:09:08.294Z,7.10
2023-01-18T19:11:39.469Z,5.23
2023-01-18T19:14:07.522Z,4.57
2023-01-18T19:16:36.871Z,6.53
2023-01-18T19:19:04.918Z,7.63
2023-01-18T19:21:33.546Z,4.27
2023-01-18T19:24:02.900Z,7.87
2023-01-18T19:26:30.848Z,7.47
2023-01-18T19:28:58.771Z,6.37
2023-01-18T19:31:26.737Z,4.90
2023-01-18T19:33:56.373Z,6.97
2023-01-18T19:36:24.476Z,6.77
2023-01-18T19:38:57.808Z,6.27
2023-01-18T19:41:30.559Z,5.80
2023-01-18T19:43:58.529Z,7.13
2023-01-18T19:46:26.670Z,4.80
2023-01-18T19:48:57.615Z,4.73
2023-01-18T19:51:25.639Z,5.07
2023-01-18T19:53:54.475Z,3.90
2023-01-18T19:56:22.478Z,4.50
2023-01-18T19:58:51.906Z,7.63
2023-01-18T20:01:34.679Z,6.00
2023-01-18T20:04:04.411Z,5.73
2023-01-18T20:06:32.404Z,6.10
2023-01-18T20:09:00.358Z,5.57
2023-01-18T20:11:28.409Z,6.37
2023-01-18T20:13:57.747Z,3.80
2023-01-18T20:16:25.716Z,4.10
2023-01-18T20:18:54.476Z,4.33
2023-01-18T20:21:22.465Z,6.30
2023-01-18T20:23:50.446Z,4.70
2023-01-18T20:26:34.912Z,5.10
2023-01-18T20:29:06.834Z,8.90
2023-01-18T20:31:36.402Z,8.37
2023-01-18T20:34:04.466Z,4.63
2023-01-18T20:36:34.936Z,4.30
2023-01-18T20:39:03.538Z,4.87
2023-01-18T20:41:31.499Z,4.03
2023-01-18T20:43:59.470Z,3.30
2023-01-18T20:46:28.845Z,4.50
2023-01-18T20:48:56.824Z,3.80
2023-01-18T20:51:24.785Z,4.37
2023-01-18T20:53:52.793Z,4.43
2023-01-18T20:56:29.151Z,5.23
2023-01-18T20:58:57.964Z,3.33
2023-01-18T21:01:31.604Z,4.50
2023-01-18T21:04:01.463Z,5.13
2023-01-18T21:06:29.469Z,4.50
2023-01-18T21:08:57.665Z,4.27
2023-01-18T21:11:26.879Z,4.30
2023-01-18T21:13:55.003Z,4.20
2023-01-18T21:16:23.568Z,4.60
2023-01-18T21:18:52.743Z,4.53
2023-01-18T21:21:22.116Z,3.60
2023-01-18T21:23:50.085Z,4.30
2023-01-18T21:26:18.210Z,3.90
2023-01-18T21:28:46.149Z,3.70
2023-01-18T21:31:14.086Z,3.00
2023-01-18T21:33:42.518Z,3.80
2023-01-18T21:36:12.666Z,3.50
2023-01-18T21:38:42.004Z,4.07
2023-01-18T21:41:27.102Z,2.17
2023-01-18T21:44:12.882Z,4.20
2023-01-18T21:46:44.331Z,4.83
2023-01-18T21:49:47.143Z,4.13
2023-01-18T21:52:37.863Z,4.53
2023-01-18T21:55:07.557Z,3.23
2023-01-18T21:57:36.649Z,4.57
2023-01-18T22:00:05.024Z,4.07
2023-01-18T22:02:33.653Z,5.13
2023-01-18T22:05:03.410Z,4.90
2023-01-18T22:07:32.289Z,3.70
2023-01-18T22:10:08.588Z,3.27
2023-01-18T22:12:39.112Z,3.20
2023-01-18T22:15:07.903Z,4.00
2023-01-18T22:17:35.879Z,3.77
2023-01-18T22:20:04.624Z,3.80
2023-01-18T22:22:32.608Z,3.60
2023-01-18T22:25:02.319Z,3.77
2023-01-18T22:27:30.401Z,2.87
2023-01-18T22:30:00.162Z,3.83
2023-01-18T22:32:28.150Z,5.10
2023-01-18T22:34:56.083Z,5.07
2023-01-18T22:37:25.940Z,4.37
2023-01-18T22:39:53.911Z,3.40
2023-01-18T22:42:21.848Z,3.83
2023-01-18T22:44:49.814Z,5.47
2023-01-18T22:47:19.193Z,3.20
2023-01-18T22:49:47.108Z,2.90
2023-01-18T22:52:15.023Z,3.10
2023-01-18T22:54:42.935Z,3.90
2023-01-18T22:57:10.850Z,4.17
2023-01-18T22:59:38.820Z,3.50
2023-01-18T23:02:06.750Z,3.17
2023-01-18T23:04:36.056Z,2.73
2023-01-18T23:07:04.048Z,3.40
2023-01-18T23:09:32.007Z,4.00
2023-01-18T23:11:59.983Z,2.50
2023-01-18T23:14:45.194Z,2.93
2023-01-18T23:17:31.496Z,3.07
2023-01-18T23:20:00.790Z,2.93
2023-01-18T23:22:28.792Z,3.47
2023-01-18T23:24:56.716Z,3.83
2023-01-18T23:27:24.688Z,2.30
2023-01-18T23:29:56.733Z,3.17
2023-01-18T23:32:27.300Z,4.33
2023-01-18T23:34:55.503Z,3.80
2023-01-18T23:37:24.992Z,3.80
2023-01-18T23:40:10.066Z,3.80
2023-01-18T23:42:55.445Z,4.43
2023-01-18T23:45:40.456Z,4.27
2023-01-18T23:48:26.765Z,3.80
2023-01-18T23:51:12.254Z,3.80
2023-01-18T23:53:58.787Z,3.53
2023-01-18T23:56:27.340Z,3.10
2023-01-18T23:58:56.494Z,4.10
